sensor_id;sensor_type;location;lat;lon;timestamp;temperature;humidity
28608;DHT22;15802;45.654;13.804;2023-02-28T00:00:21;3.60;99.90
28608;DHT22;15802;45.654;13.804;2023-02-28T00:02:47;3.50;99.90
28608;DHT22;15802;45.654;13.804;2023-02-28T00:05:14;3.60;99.90
28608;DHT22;15802;45.654;13.804;2023-02-28T00:07:40;3.50;99.90
28608;DHT22;15802;45.654;13.804;2023-02-28T00:10:07;3.50;99.90
28608;DHT22;15802;45.654;13.804;2023-02-28T00:12:34;3.50;99.90
28608;DHT22;15802;45.654;13.804;2023-02-28T00:15:04;3.50;99.90
28608;DHT22;15802;45.654;13.804;2023-02-28T00:17:31;3.50;99.90
28608;DHT22;15802;45.654;13.804;2023-02-28T00:19:56;3.50;99.90
28608;DHT22;15802;45.654;13.804;2023-02-28T00:22:26;3.50;99.90
28608;DHT22;15802;45.654;13.804;2023-02-28T00:24:52;3.50;99.90
28608;DHT22;15802;45.654;13.804;2023-02-28T00:27:18;3.60;99.90
28608;DHT22;15802;45.654;13.804;2023-02-28T00:29:43;3.50;99.90
28608;DHT22;15802;45.654;13.804;2023-02-28T00:32:11;3.50;99.90
28608;DHT22;15802;45.654;13.804;2023-02-28T00:34:37;3.50;99.90
28608;DHT22;15802;45.654;13.804;2023-02-28T00:37:03;3.50;99.90
28608;DHT22;15802;45.654;13.804;2023-02-28T00:39:29;3.60;99.90
28608;DHT22;15802;45.654;13.804;2023-02-28T00:41:55;3.60;99.90
28608;DHT22;15802;45.654;13.804;2023-02-28T00:44:22;3.50;99.90
28608;DHT22;15802;45.654;13.804;2023-02-28T00:46:47;3.50;99.90
28608;DHT22;15802;45.654;13.804;2023-02-28T00:49:13;3.60;99.90
28608;DHT22;15802;45.654;13.804;2023-02-28T00:51:39;3.50;99.90
28608;DHT22;15802;45.654;13.804;2023-02-28T00:54:06;3.50;99.90
28608;DHT22;15802;45.654;13.804;2023-02-28T00:56:32;3.50;99.90
28608;DHT22;15802;45.654;13.804;2023-02-28T00:58:58;3.50;99.90
28608;DHT22;15802;45.654;13.804;2023-02-28T01:01:23;3.50;99.90
28608;DHT22;15802;45.654;13.804;2023-02-28T01:03:49;3.60;99.90
28608;DHT22;15802;45.654;13.804;2023-02-28T01:06:15;3.60;99.90
28608;DHT22;15802;45.654;13.804;2023-02-28T01:08:40;3.60;99.90
28608;DHT22;15802;45.654;13.804;2023-02-28T01:11:08;3.50;99.90
28608;DHT22;15802;45.654;13.804;2023-02-28T01:13:34;3.50;99.90
28608;DHT22;15802;45.654;13.804;2023-02-28T01:16:00;3.50;99.90
28608;DHT22;15802;45.654;13.804;2023-02-28T01:18:25;3.60;99.90
28608;DHT22;15802;45.654;13.804;2023-02-28T01:20:51;3.60;99.90
28608;DHT22;15802;45.654;13.804;2023-02-28T01:23:18;3.60;99.90
28608;DHT22;15802;45.654;13.804;2023-02-28T01:25:45;3.70;99.90
28608;DHT22;15802;45.654;13.804;2023-02-28T01:28:10;3.60;99.90
28608;DHT22;15802;45.654;13.804;2023-02-28T01:30:36;3.60;99.90
28608;DHT22;15802;45.654;13.804;2023-02-28T01:33:02;3.60;99.90
28608;DHT22;15802;45.654;13.804;2023-02-28T01:35:27;3.60;99.90
28608;DHT22;15802;45.654;13.804;2023-02-28T01:37:53;3.60;99.90
28608;DHT22;15802;45.654;13.804;2023-02-28T01:40:19;3.60;99.90
28608;DHT22;15802;45.654;13.804;2023-02-28T01:42:45;3.60;99.90
28608;DHT22;15802;45.654;13.804;2023-02-28T01:45:20;3.50;99.90
28608;DHT22;15802;45.654;13.804;2023-02-28T01:47:47;3.50;99.90
28608;DHT22;15802;45.654;13.804;2023-02-28T01:50:15;3.50;99.90
28608;DHT22;15802;45.654;13.804;2023-02-28T01:52:41;3.50;99.90
28608;DHT22;15802;45.654;13.804;2023-02-28T01:55:08;3.50;99.90
28608;DHT22;15802;45.654;13.804;2023-02-28T01:57:36;3.60;99.90
28608;DHT22;15802;45.654;13.804;2023-02-28T02:00:06;3.60;99.90
28608;DHT22;15802;45.654;13.804;2023-02-28T02:02:33;3.60;99.90
28608;DHT22;15802;45.654;13.804;2023-02-28T02:05:07;3.50;99.90
28608;DHT22;15802;45.654;13.804;2023-02-28T02:07:35;3.50;99.90
28608;DHT22;15802;45.654;13.804;2023-02-28T02:10:04;3.50;99.90
28608;DHT22;15802;45.654;13.804;2023-02-28T02:12:36;3.50;99.90
28608;DHT22;15802;45.654;13.804;2023-02-28T02:15:24;3.60;99.90
28608;DHT22;15802;45.654;13.804;2023-02-28T02:17:52;3.60;99.90
28608;DHT22;15802;45.654;13.804;2023-02-28T02:20:28;3.60;99.90
28608;DHT22;15802;45.654;13.804;2023-02-28T02:25:45;3.60;99.90
28608;DHT22;15802;45.654;13.804;2023-02-28T02:28:20;3.60;99.90
28608;DHT22;15802;45.654;13.804;2023-02-28T02:33:38;3.70;99.90
28608;DHT22;15802;45.654;13.804;2023-02-28T02:41:49;3.70;99.90
28608;DHT22;15802;45.654;13.804;2023-02-28T02:44:35;3.60;99.90
28608;DHT22;15802;45.654;13.804;2023-02-28T02:47:03;3.70;99.90
28608;DHT22;15802;45.654;13.804;2023-02-28T02:49:31;3.70;99.90
28608;DHT22;15802;45.654;13.804;2023-02-28T02:51:57;3.70;99.90
28608;DHT22;15802;45.654;13.804;2023-02-28T02:54:28;3.60;99.90
28608;DHT22;15802;45.654;13.804;2023-02-28T02:56:55;3.60;99.90
28608;DHT22;15802;45.654;13.804;2023-02-28T02:59:22;3.70;99.90
28608;DHT22;15802;45.654;13.804;2023-02-28T03:01:51;3.70;99.90
28608;DHT22;15802;45.654;13.804;2023-02-28T03:04:19;3.70;99.90
28608;DHT22;15802;45.654;13.804;2023-02-28T03:06:44;3.70;99.90
28608;DHT22;15802;45.654;13.804;2023-02-28T03:09:10;3.60;99.90
28608;DHT22;15802;45.654;13.804;2023-02-28T03:11:36;3.60;99.90
28608;DHT22;15802;45.654;13.804;2023-02-28T03:16:51;3.60;99.90
28608;DHT22;15802;45.654;13.804;2023-02-28T03:19:25;3.60;99.90
28608;DHT22;15802;45.654;13.804;2023-02-28T03:22:14;3.60;99.90
28608;DHT22;15802;45.654;13.804;2023-02-28T03:24:45;3.60;99.90
28608;DHT22;15802;45.654;13.804;2023-02-28T03:27:17;3.70;99.90
28608;DHT22;15802;45.654;13.804;2023-02-28T03:29:47;3.70;99.90
28608;DHT22;15802;45.654;13.804;2023-02-28T03:32:22;3.70;99.90
28608;DHT22;15802;45.654;13.804;2023-02-28T03:34:54;3.70;99.90
28608;DHT22;15802;45.654;13.804;2023-02-28T03:37:23;3.70;99.90
28608;DHT22;15802;45.654;13.804;2023-02-28T03:39:53;3.60;99.90
28608;DHT22;15802;45.654;13.804;2023-02-28T03:42:20;3.60;99.90
28608;DHT22;15802;45.654;13.804;2023-02-28T03:44:48;3.60;99.90
28608;DHT22;15802;45.654;13.804;2023-02-28T03:47:16;3.50;99.90
28608;DHT22;15802;45.654;13.804;2023-02-28T03:49:46;3.60;99.90
28608;DHT22;15802;45.654;13.804;2023-02-28T03:52:15;3.60;99.90
28608;DHT22;15802;45.654;13.804;2023-02-28T03:54:44;3.50;99.90
28608;DHT22;15802;45.654;13.804;2023-02-28T03:57:15;3.50;99.90
28608;DHT22;15802;45.654;13.804;2023-02-28T03:59:44;3.50;99.90
28608;DHT22;15802;45.654;13.804;2023-02-28T04:02:12;3.50;99.90
28608;DHT22;15802;45.654;13.804;2023-02-28T04:04:38;3.60;99.90
28608;DHT22;15802;45.654;13.804;2023-02-28T04:07:06;3.50;99.90
28608;DHT22;15802;45.654;13.804;2023-02-28T04:09:32;3.60;99.90
28608;DHT22;15802;45.654;13.804;2023-02-28T04:11:57;3.60;99.90
28608;DHT22;15802;45.654;13.804;2023-02-28T04:14:23;3.60;99.90
28608;DHT22;15802;45.654;13.804;2023-02-28T04:16:49;3.70;99.90
28608;DHT22;15802;45.654;13.804;2023-02-28T04:19:16;3.60;99.90
28608;DHT22;15802;45.654;13.804;2023-02-28T04:21:44;3.60;99.90
28608;DHT22;15802;45.654;13.804;2023-02-28T04:24:10;3.60;99.90
28608;DHT22;15802;45.654;13.804;2023-02-28T04:26:40;3.50;99.90
28608;DHT22;15802;45.654;13.804;2023-02-28T04:29:06;3.50;99.90
28608;DHT22;15802;45.654;13.804;2023-02-28T04:31:32;3.50;99.90
28608;DHT22;15802;45.654;13.804;2023-02-28T04:33:58;3.50;99.90
28608;DHT22;15802;45.654;13.804;2023-02-28T04:36:24;3.60;99.90
28608;DHT22;15802;45.654;13.804;2023-02-28T04:38:50;3.50;99.90
28608;DHT22;15802;45.654;13.804;2023-02-28T04:41:16;3.60;99.90
28608;DHT22;15802;45.654;13.804;2023-02-28T04:43:42;3.60;99.90
28608;DHT22;15802;45.654;13.804;2023-02-28T04:46:07;3.60;99.90
28608;DHT22;15802;45.654;13.804;2023-02-28T04:48:34;3.50;99.90
28608;DHT22;15802;45.654;13.804;2023-02-28T04:51:03;3.50;99.90
28608;DHT22;15802;45.654;13.804;2023-02-28T04:53:28;3.50;99.90
28608;DHT22;15802;45.654;13.804;2023-02-28T04:55:55;3.50;99.90
28608;DHT22;15802;45.654;13.804;2023-02-28T04:58:21;3.50;99.90
28608;DHT22;15802;45.654;13.804;2023-02-28T05:00:49;3.50;99.90
28608;DHT22;15802;45.654;13.804;2023-02-28T05:03:18;3.60;99.90
28608;DHT22;15802;45.654;13.804;2023-02-28T05:05:43;3.60;99.90
28608;DHT22;15802;45.654;13.804;2023-02-28T05:08:09;3.50;99.90
28608;DHT22;15802;45.654;13.804;2023-02-28T05:10:35;3.60;99.90
28608;DHT22;15802;45.654;13.804;2023-02-28T05:13:01;3.50;99.90
28608;DHT22;15802;45.654;13.804;2023-02-28T05:15:26;3.60;99.90
28608;DHT22;15802;45.654;13.804;2023-02-28T05:17:52;3.60;99.90
28608;DHT22;15802;45.654;13.804;2023-02-28T05:20:18;3.60;99.90
28608;DHT22;15802;45.654;13.804;2023-02-28T05:22:43;3.50;99.90
28608;DHT22;15802;45.654;13.804;2023-02-28T05:25:12;3.50;99.90
28608;DHT22;15802;45.654;13.804;2023-02-28T05:27:38;3.50;99.90
28608;DHT22;15802;45.654;13.804;2023-02-28T05:30:05;3.50;99.90
28608;DHT22;15802;45.654;13.804;2023-02-28T05:32:31;3.50;99.90
28608;DHT22;15802;45.654;13.804;2023-02-28T05:34:57;3.50;99.90
28608;DHT22;15802;45.654;13.804;2023-02-28T05:37:22;3.50;99.90
28608;DHT22;15802;45.654;13.804;2023-02-28T05:39:48;3.50;99.90
28608;DHT22;15802;45.654;13.804;2023-02-28T05:42:13;3.40;99.90
28608;DHT22;15802;45.654;13.804;2023-02-28T05:44:39;3.40;99.90
28608;DHT22;15802;45.654;13.804;2023-02-28T05:47:05;3.40;99.90
28608;DHT22;15802;45.654;13.804;2023-02-28T05:49:30;3.40;99.90
28608;DHT22;15802;45.654;13.804;2023-02-28T05:51:56;3.50;99.90
28608;DHT22;15802;45.654;13.804;2023-02-28T05:54:22;3.50;99.90
28608;DHT22;15802;45.654;13.804;2023-02-28T05:56:48;3.50;99.90
28608;DHT22;15802;45.654;13.804;2023-02-28T05:59:13;3.50;99.90
28608;DHT22;15802;45.654;13.804;2023-02-28T06:01:40;3.50;99.90
28608;DHT22;15802;45.654;13.804;2023-02-28T06:04:07;3.50;99.90
28608;DHT22;15802;45.654;13.804;2023-02-28T06:06:33;3.60;99.90
28608;DHT22;15802;45.654;13.804;2023-02-28T06:09:01;3.60;99.90
28608;DHT22;15802;45.654;13.804;2023-02-28T06:11:27;3.60;99.90
28608;DHT22;15802;45.654;13.804;2023-02-28T06:13:53;3.60;99.90
28608;DHT22;15802;45.654;13.804;2023-02-28T06:16:19;3.60;99.90
28608;DHT22;15802;45.654;13.804;2023-02-28T06:18:45;3.60;99.90
28608;DHT22;15802;45.654;13.804;2023-02-28T06:21:13;3.60;99.90
28608;DHT22;15802;45.654;13.804;2023-02-28T06:23:39;3.60;99.90
28608;DHT22;15802;45.654;13.804;2023-02-28T06:26:05;3.60;99.90
28608;DHT22;15802;45.654;13.804;2023-02-28T06:28:31;3.70;99.90
28608;DHT22;15802;45.654;13.804;2023-02-28T06:30:56;3.70;99.90
28608;DHT22;15802;45.654;13.804;2023-02-28T06:33:22;3.60;99.90
28608;DHT22;15802;45.654;13.804;2023-02-28T06:35:51;3.80;99.90
28608;DHT22;15802;45.654;13.804;2023-02-28T06:38:16;3.70;99.90
28608;DHT22;15802;45.654;13.804;2023-02-28T06:40:43;3.80;99.90
28608;DHT22;15802;45.654;13.804;2023-02-28T06:43:09;3.80;99.90
28608;DHT22;15802;45.654;13.804;2023-02-28T06:45:41;3.80;99.90
28608;DHT22;15802;45.654;13.804;2023-02-28T06:48:10;3.80;99.90
28608;DHT22;15802;45.654;13.804;2023-02-28T06:50:36;3.90;99.90
28608;DHT22;15802;45.654;13.804;2023-02-28T06:53:01;3.90;99.90
28608;DHT22;15802;45.654;13.804;2023-02-28T06:55:27;3.90;99.90
28608;DHT22;15802;45.654;13.804;2023-02-28T06:57:52;3.90;99.90
28608;DHT22;15802;45.654;13.804;2023-02-28T07:00:20;4.00;99.90
28608;DHT22;15802;45.654;13.804;2023-02-28T07:02:48;3.90;99.90
28608;DHT22;15802;45.654;13.804;2023-02-28T07:05:14;3.90;99.90
28608;DHT22;15802;45.654;13.804;2023-02-28T07:07:40;3.90;99.90
28608;DHT22;15802;45.654;13.804;2023-02-28T07:10:09;3.90;99.90
28608;DHT22;15802;45.654;13.804;2023-02-28T07:12:36;4.00;99.90
28608;DHT22;15802;45.654;13.804;2023-02-28T07:15:01;4.00;99.90
28608;DHT22;15802;45.654;13.804;2023-02-28T07:17:28;3.90;99.90
28608;DHT22;15802;45.654;13.804;2023-02-28T07:19:54;4.00;99.90
28608;DHT22;15802;45.654;13.804;2023-02-28T07:22:19;3.90;99.90
28608;DHT22;15802;45.654;13.804;2023-02-28T07:24:45;3.90;99.90
28608;DHT22;15802;45.654;13.804;2023-02-28T07:27:11;3.90;99.90
28608;DHT22;15802;45.654;13.804;2023-02-28T07:29:36;3.90;99.90
28608;DHT22;15802;45.654;13.804;2023-02-28T07:32:03;4.00;99.90
28608;DHT22;15802;45.654;13.804;2023-02-28T07:34:29;4.10;99.90
28608;DHT22;15802;45.654;13.804;2023-02-28T07:36:55;4.10;99.90
28608;DHT22;15802;45.654;13.804;2023-02-28T07:39:21;4.20;99.90
28608;DHT22;15802;45.654;13.804;2023-02-28T07:41:47;4.30;99.90
28608;DHT22;15802;45.654;13.804;2023-02-28T07:44:13;4.30;99.90
28608;DHT22;15802;45.654;13.804;2023-02-28T07:46:38;4.40;99.90
28608;DHT22;15802;45.654;13.804;2023-02-28T07:49:05;4.30;99.90
28608;DHT22;15802;45.654;13.804;2023-02-28T07:51:30;4.40;99.90
28608;DHT22;15802;45.654;13.804;2023-02-28T07:53:56;4.40;99.90
28608;DHT22;15802;45.654;13.804;2023-02-28T07:56:22;4.40;99.90
28608;DHT22;15802;45.654;13.804;2023-02-28T07:58:48;4.40;99.90
28608;DHT22;15802;45.654;13.804;2023-02-28T08:01:14;4.30;99.90
28608;DHT22;15802;45.654;13.804;2023-02-28T08:03:39;4.40;99.90
28608;DHT22;15802;45.654;13.804;2023-02-28T08:06:06;4.40;99.90
28608;DHT22;15802;45.654;13.804;2023-02-28T08:08:32;4.40;99.90
28608;DHT22;15802;45.654;13.804;2023-02-28T08:10:59;4.40;99.90
28608;DHT22;15802;45.654;13.804;2023-02-28T08:13:28;4.40;99.90
28608;DHT22;15802;45.654;13.804;2023-02-28T08:15:55;4.30;99.90
28608;DHT22;15802;45.654;13.804;2023-02-28T08:18:21;4.40;99.90
28608;DHT22;15802;45.654;13.804;2023-02-28T08:20:47;4.40;99.90
28608;DHT22;15802;45.654;13.804;2023-02-28T08:23:13;4.50;99.90
28608;DHT22;15802;45.654;13.804;2023-02-28T08:25:39;4.60;99.90
28608;DHT22;15802;45.654;13.804;2023-02-28T08:28:04;4.60;99.90
28608;DHT22;15802;45.654;13.804;2023-02-28T08:30:30;4.70;99.90
28608;DHT22;15802;45.654;13.804;2023-02-28T08:33:00;4.80;99.90
28608;DHT22;15802;45.654;13.804;2023-02-28T08:35:27;4.90;99.90
28608;DHT22;15802;45.654;13.804;2023-02-28T08:37:52;5.00;99.90
28608;DHT22;15802;45.654;13.804;2023-02-28T08:40:18;5.10;99.90
28608;DHT22;15802;45.654;13.804;2023-02-28T08:42:45;5.10;99.90
28608;DHT22;15802;45.654;13.804;2023-02-28T08:47:57;5.20;99.90
28608;DHT22;15802;45.654;13.804;2023-02-28T08:50:23;5.30;99.90
28608;DHT22;15802;45.654;13.804;2023-02-28T08:52:49;5.40;99.90
28608;DHT22;15802;45.654;13.804;2023-02-28T08:55:15;5.40;99.90
28608;DHT22;15802;45.654;13.804;2023-02-28T08:57:42;5.50;99.90
28608;DHT22;15802;45.654;13.804;2023-02-28T09:00:08;5.40;99.90
28608;DHT22;15802;45.654;13.804;2023-02-28T09:02:35;5.30;99.90
28608;DHT22;15802;45.654;13.804;2023-02-28T09:05:02;5.40;99.90
28608;DHT22;15802;45.654;13.804;2023-02-28T09:07:28;5.40;99.90
28608;DHT22;15802;45.654;13.804;2023-02-28T09:09:54;5.50;99.90
28608;DHT22;15802;45.654;13.804;2023-02-28T09:12:24;5.50;99.90
28608;DHT22;15802;45.654;13.804;2023-02-28T09:14:49;5.50;99.90
28608;DHT22;15802;45.654;13.804;2023-02-28T09:17:15;5.50;99.90
28608;DHT22;15802;45.654;13.804;2023-02-28T09:19:41;5.60;99.90
28608;DHT22;15802;45.654;13.804;2023-02-28T09:22:08;5.60;99.90
28608;DHT22;15802;45.654;13.804;2023-02-28T09:24:34;5.50;99.90
28608;DHT22;15802;45.654;13.804;2023-02-28T09:27:03;5.60;99.90
28608;DHT22;15802;45.654;13.804;2023-02-28T09:29:32;5.70;99.90
28608;DHT22;15802;45.654;13.804;2023-02-28T09:31:58;5.70;99.90
28608;DHT22;15802;45.654;13.804;2023-02-28T09:34:30;5.60;99.90
28608;DHT22;15802;45.654;13.804;2023-02-28T09:36:56;5.60;99.90
28608;DHT22;15802;45.654;13.804;2023-02-28T09:39:23;5.70;99.90
28608;DHT22;15802;45.654;13.804;2023-02-28T09:41:58;5.80;99.90
28608;DHT22;15802;45.654;13.804;2023-02-28T09:44:35;5.80;99.90
28608;DHT22;15802;45.654;13.804;2023-02-28T09:49:50;5.90;99.90
28608;DHT22;15802;45.654;13.804;2023-02-28T09:52:32;6.00;99.90
28608;DHT22;15802;45.654;13.804;2023-02-28T09:55:08;6.00;99.90
28608;DHT22;15802;45.654;13.804;2023-02-28T09:57:44;6.00;99.90
28608;DHT22;15802;45.654;13.804;2023-02-28T10:00:23;6.20;99.90
28608;DHT22;15802;45.654;13.804;2023-02-28T10:08:00;6.10;99.90
28608;DHT22;15802;45.654;13.804;2023-02-28T10:10:47;5.90;99.90
28608;DHT22;15802;45.654;13.804;2023-02-28T10:13:25;6.00;99.90
28608;DHT22;15802;45.654;13.804;2023-02-28T10:15:54;6.20;99.90
28608;DHT22;15802;45.654;13.804;2023-02-28T10:18:57;6.20;99.90
28608;DHT22;15802;45.654;13.804;2023-02-28T10:21:28;6.30;99.90
28608;DHT22;15802;45.654;13.804;2023-02-28T10:24:21;6.40;99.90
28608;DHT22;15802;45.654;13.804;2023-02-28T10:26:52;6.30;99.90
28608;DHT22;15802;45.654;13.804;2023-02-28T10:29:31;6.40;99.90
28608;DHT22;15802;45.654;13.804;2023-02-28T10:31:58;6.40;99.90
28608;DHT22;15802;45.654;13.804;2023-02-28T10:34:25;6.40;99.90
28608;DHT22;15802;45.654;13.804;2023-02-28T10:36:53;6.50;99.90
28608;DHT22;15802;45.654;13.804;2023-02-28T10:42:28;6.60;99.90
28608;DHT22;15802;45.654;13.804;2023-02-28T10:50:58;6.70;99.90
28608;DHT22;15802;45.654;13.804;2023-02-28T10:53:28;6.80;99.90
28608;DHT22;15802;45.654;13.804;2023-02-28T10:56:00;6.70;99.90
28608;DHT22;15802;45.654;13.804;2023-02-28T10:58:29;6.70;99.90
28608;DHT22;15802;45.654;13.804;2023-02-28T11:00:58;6.70;99.90
28608;DHT22;15802;45.654;13.804;2023-02-28T11:03:51;6.70;99.90
28608;DHT22;15802;45.654;13.804;2023-02-28T11:06:20;6.70;99.90
28608;DHT22;15802;45.654;13.804;2023-02-28T11:08:49;6.70;99.90
28608;DHT22;15802;45.654;13.804;2023-02-28T11:11:26;6.60;99.90
28608;DHT22;15802;45.654;13.804;2023-02-28T11:13:53;6.60;99.90
28608;DHT22;15802;45.654;13.804;2023-02-28T11:16:20;6.60;99.90
28608;DHT22;15802;45.654;13.804;2023-02-28T11:18:49;6.60;99.90
28608;DHT22;15802;45.654;13.804;2023-02-28T11:33:52;6.60;99.90
28608;DHT22;15802;45.654;13.804;2023-02-28T11:39:53;6.70;99.90
28608;DHT22;15802;45.654;13.804;2023-02-28T11:42:31;6.90;99.90
28608;DHT22;15802;45.654;13.804;2023-02-28T11:45:15;6.90;99.90
28608;DHT22;15802;45.654;13.804;2023-02-28T11:47:47;6.80;99.90
28608;DHT22;15802;45.654;13.804;2023-02-28T11:50:18;6.80;99.90
28608;DHT22;15802;45.654;13.804;2023-02-28T11:52:54;6.90;99.90
28608;DHT22;15802;45.654;13.804;2023-02-28T11:55:25;6.70;99.90
28608;DHT22;15802;45.654;13.804;2023-02-28T12:00:29;6.60;99.90
28608;DHT22;15802;45.654;13.804;2023-02-28T12:03:04;6.70;99.90
28608;DHT22;15802;45.654;13.804;2023-02-28T12:05:39;6.70;99.90
28608;DHT22;15802;45.654;13.804;2023-02-28T12:13:46;7.00;99.90
28608;DHT22;15802;45.654;13.804;2023-02-28T12:16:24;7.00;99.90
28608;DHT22;15802;45.654;13.804;2023-02-28T12:21:44;6.80;99.90
28608;DHT22;15802;45.654;13.804;2023-02-28T12:24:21;6.70;99.90
28608;DHT22;15802;45.654;13.804;2023-02-28T12:26:48;6.80;99.90
28608;DHT22;15802;45.654;13.804;2023-02-28T12:29:32;6.90;99.90
28608;DHT22;15802;45.654;13.804;2023-02-28T12:32:04;7.00;99.90
28608;DHT22;15802;45.654;13.804;2023-02-28T12:34:33;7.10;99.90
28608;DHT22;15802;45.654;13.804;2023-02-28T12:37:02;7.10;99.90
28608;DHT22;15802;45.654;13.804;2023-02-28T12:39:33;7.10;99.90
28608;DHT22;15802;45.654;13.804;2023-02-28T12:42:01;7.10;99.90
28608;DHT22;15802;45.654;13.804;2023-02-28T12:44:32;7.00;99.90
28608;DHT22;15802;45.654;13.804;2023-02-28T12:47:02;6.90;99.90
28608;DHT22;15802;45.654;13.804;2023-02-28T12:49:33;6.90;99.90
28608;DHT22;15802;45.654;13.804;2023-02-28T12:52:00;7.00;99.90
28608;DHT22;15802;45.654;13.804;2023-02-28T12:54:30;7.10;99.90
28608;DHT22;15802;45.654;13.804;2023-02-28T12:57:02;7.00;99.90
28608;DHT22;15802;45.654;13.804;2023-02-28T12:59:37;7.00;99.90
28608;DHT22;15802;45.654;13.804;2023-02-28T13:02:27;7.00;99.90
28608;DHT22;15802;45.654;13.804;2023-02-28T13:05:06;7.00;99.90
28608;DHT22;15802;45.654;13.804;2023-02-28T13:07:55;6.70;99.90
28608;DHT22;15802;45.654;13.804;2023-02-28T13:10:20;6.90;99.90
28608;DHT22;15802;45.654;13.804;2023-02-28T13:12:51;7.00;99.90
28608;DHT22;15802;45.654;13.804;2023-02-28T13:15:22;7.00;99.90
28608;DHT22;15802;45.654;13.804;2023-02-28T13:17:50;6.90;99.90
28608;DHT22;15802;45.654;13.804;2023-02-28T13:20:17;7.00;99.90
28608;DHT22;15802;45.654;13.804;2023-02-28T13:22:44;7.00;99.90
28608;DHT22;15802;45.654;13.804;2023-02-28T13:25:49;7.00;99.90
28608;DHT22;15802;45.654;13.804;2023-02-28T13:27:56;7.10;99.90
28608;DHT22;15802;45.654;13.804;2023-02-28T13:33:20;7.10;99.90
28608;DHT22;15802;45.654;13.804;2023-02-28T13:35:47;7.00;99.90
28608;DHT22;15802;45.654;13.804;2023-02-28T13:38:17;6.70;99.90
28608;DHT22;15802;45.654;13.804;2023-02-28T13:40:42;6.80;99.90
28608;DHT22;15802;45.654;13.804;2023-02-28T13:43:08;6.90;99.90
28608;DHT22;15802;45.654;13.804;2023-02-28T13:45:34;6.90;99.90
28608;DHT22;15802;45.654;13.804;2023-02-28T13:48:15;6.80;99.90
28608;DHT22;15802;45.654;13.804;2023-02-28T13:50:44;6.80;99.90
28608;DHT22;15802;45.654;13.804;2023-02-28T13:53:19;6.80;99.90
28608;DHT22;15802;45.654;13.804;2023-02-28T13:58:38;6.60;99.90
28608;DHT22;15802;45.654;13.804;2023-02-28T14:01:12;6.70;99.90
28608;DHT22;15802;45.654;13.804;2023-02-28T14:03:53;6.90;99.90
28608;DHT22;15802;45.654;13.804;2023-02-28T14:06:29;6.90;99.90
28608;DHT22;15802;45.654;13.804;2023-02-28T14:11:42;6.80;99.90
28608;DHT22;15802;45.654;13.804;2023-02-28T14:14:09;6.80;99.90
28608;DHT22;15802;45.654;13.804;2023-02-28T14:16:55;6.90;99.90
28608;DHT22;15802;45.654;13.804;2023-02-28T14:19:24;7.00;99.90
28608;DHT22;15802;45.654;13.804;2023-02-28T14:27:22;7.00;99.90
28608;DHT22;15802;45.654;13.804;2023-02-28T14:29:59;7.00;99.90
28608;DHT22;15802;45.654;13.804;2023-02-28T14:32:32;7.00;99.90
28608;DHT22;15802;45.654;13.804;2023-02-28T14:37:47;7.10;99.90
28608;DHT22;15802;45.654;13.804;2023-02-28T14:40:15;7.10;99.90
28608;DHT22;15802;45.654;13.804;2023-02-28T14:42:45;7.00;99.90
28608;DHT22;15802;45.654;13.804;2023-02-28T14:45:19;6.90;99.90
28608;DHT22;15802;45.654;13.804;2023-02-28T14:47:45;6.80;99.90
28608;DHT22;15802;45.654;13.804;2023-02-28T14:50:20;6.80;99.90
28608;DHT22;15802;45.654;13.804;2023-02-28T14:52:46;6.90;99.90
28608;DHT22;15802;45.654;13.804;2023-02-28T14:55:13;6.90;99.90
28608;DHT22;15802;45.654;13.804;2023-02-28T14:57:41;6.90;99.90
28608;DHT22;15802;45.654;13.804;2023-02-28T15:00:22;6.90;99.90
28608;DHT22;15802;45.654;13.804;2023-02-28T15:02:48;7.00;99.90
28608;DHT22;15802;45.654;13.804;2023-02-28T15:05:19;6.70;99.90
28608;DHT22;15802;45.654;13.804;2023-02-28T15:07:45;6.80;99.90
28608;DHT22;15802;45.654;13.804;2023-02-28T15:10:15;6.70;99.90
28608;DHT22;15802;45.654;13.804;2023-02-28T15:12:41;6.70;99.90
28608;DHT22;15802;45.654;13.804;2023-02-28T15:15:14;6.60;99.90
28608;DHT22;15802;45.654;13.804;2023-02-28T15:17:40;6.70;99.90
28608;DHT22;15802;45.654;13.804;2023-02-28T15:20:10;6.80;99.90
28608;DHT22;15802;45.654;13.804;2023-02-28T15:22:37;6.60;99.90
28608;DHT22;15802;45.654;13.804;2023-02-28T15:25:03;6.50;99.90
28608;DHT22;15802;45.654;13.804;2023-02-28T15:27:32;6.50;99.90
28608;DHT22;15802;45.654;13.804;2023-02-28T15:29:59;6.50;99.90
28608;DHT22;15802;45.654;13.804;2023-02-28T15:32:27;6.60;99.90
28608;DHT22;15802;45.654;13.804;2023-02-28T15:34:54;6.50;99.90
28608;DHT22;15802;45.654;13.804;2023-02-28T15:37:39;6.40;99.90
28608;DHT22;15802;45.654;13.804;2023-02-28T15:40:17;6.50;99.90
28608;DHT22;15802;45.654;13.804;2023-02-28T15:42:57;6.50;99.90
28608;DHT22;15802;45.654;13.804;2023-02-28T15:45:32;6.50;99.90
28608;DHT22;15802;45.654;13.804;2023-02-28T15:48:02;6.50;99.90
28608;DHT22;15802;45.654;13.804;2023-02-28T15:50:28;6.40;99.90
28608;DHT22;15802;45.654;13.804;2023-02-28T15:52:54;6.30;99.90
28608;DHT22;15802;45.654;13.804;2023-02-28T15:55:22;6.20;99.90
28608;DHT22;15802;45.654;13.804;2023-02-28T15:57:50;6.10;99.90
28608;DHT22;15802;45.654;13.804;2023-02-28T16:00:19;5.90;99.90
28608;DHT22;15802;45.654;13.804;2023-02-28T16:02:45;5.90;99.90
28608;DHT22;15802;45.654;13.804;2023-02-28T16:05:21;5.90;99.90
28608;DHT22;15802;45.654;13.804;2023-02-28T16:07:58;5.90;99.90
28608;DHT22;15802;45.654;13.804;2023-02-28T16:10:24;5.80;99.90
28608;DHT22;15802;45.654;13.804;2023-02-28T16:12:52;5.80;99.90
28608;DHT22;15802;45.654;13.804;2023-02-28T16:15:19;5.90;99.90
28608;DHT22;15802;45.654;13.804;2023-02-28T16:17:46;5.90;99.90
28608;DHT22;15802;45.654;13.804;2023-02-28T16:20:16;5.90;99.90
28608;DHT22;15802;45.654;13.804;2023-02-28T16:22:42;5.70;99.90
28608;DHT22;15802;45.654;13.804;2023-02-28T16:25:11;5.60;99.90
28608;DHT22;15802;45.654;13.804;2023-02-28T16:27:37;5.60;99.90
28608;DHT22;15802;45.654;13.804;2023-02-28T16:30:03;5.50;99.90
28608;DHT22;15802;45.654;13.804;2023-02-28T16:32:29;5.50;99.90
28608;DHT22;15802;45.654;13.804;2023-02-28T16:34:56;5.50;99.90
28608;DHT22;15802;45.654;13.804;2023-02-28T16:37:21;5.40;99.90
28608;DHT22;15802;45.654;13.804;2023-02-28T16:39:47;5.40;99.90
28608;DHT22;15802;45.654;13.804;2023-02-28T16:42:15;5.40;99.90
28608;DHT22;15802;45.654;13.804;2023-02-28T16:44:41;5.30;99.90
28608;DHT22;15802;45.654;13.804;2023-02-28T16:47:08;5.20;99.90
28608;DHT22;15802;45.654;13.804;2023-02-28T16:49:35;5.20;99.90
28608;DHT22;15802;45.654;13.804;2023-02-28T16:52:01;5.20;99.90
28608;DHT22;15802;45.654;13.804;2023-02-28T16:54:26;5.20;99.90
28608;DHT22;15802;45.654;13.804;2023-02-28T16:56:52;5.30;99.90